M/V Raymond M. — WDC4224 — position and weather

sailwx.info

Track history (hours):
 
Tides and Currents Weather Stations Pressure Air Temp Water Temp Dewpoint Dewpoint Depression Visibility Wind Speed Wind Dir Waves Ship Positions

M/V Raymond M.

Owner: RM Leasing, Clute, TX. More information available from US FCC via Universal Licensing System and Coast Guard Vessel Documentation Center.

Last reported at 2016-Apr-08 10:20 UTC. Time now 2016-May-05 21:57 UTC.
Position N 28°16' W 092°06'.
Warning: this ship's position is 27 days out of date.

; draft 2.2 m.

MMSI: 367021170.

Date/timePositionNaut miles runAvg speedWind from/ knotsBaromVisibWave heightAir tempDewpointWater temp
2016-Apr-08 10:20N 28°16' W 092°06'1316.8
2016-Apr-08 09:33N 28°29' W 092°10'2120.9
2016-Apr-08 08:33N 28°50' W 092°15'2020.4
2016-Apr-08 07:33N 29°09' W 092°20'2019.8
2016-Apr-08 06:32N 29°30' W 092°19'9 8.8
2016-Apr-08 05:33N 29°38' W 092°16'9 9.4
2016-Apr-08 04:33N 29°46' W 092°11'1 0.8
2016-Apr-08 03:34N 29°47' W 092°11'0 0.0
2016-Apr-08 02:33N 29°47' W 092°11'2 0.2
2016-Apr-07 14:33N 29°47' W 092°09'9 3.0
2016-Apr-07 11:24N 29°40' W 092°15'8 0.2
2016-Apr-05 13:33N 29°47' W 092°11'10 9.6
2016-Apr-05 12:33N 29°38' W 092°16'7 7.4
2016-Apr-05 11:33N 29°31' W 092°19'2120.4
2016-Apr-05 10:32N 29°10' W 092°20'  
Track history (hours):
 
Tides and Currents Weather Stations Pressure Air Temp Water Temp Dewpoint Dewpoint Depression Visibility Wind Speed Wind Dir Waves Ship Positions

M/V Raymond M.

Owner: RM Leasing, Clute, TX. More information available from US FCC via Universal Licensing System and Coast Guard Vessel Documentation Center.

Last reported at 2016-Apr-08 10:20 UTC. Time now 2016-May-05 21:57 UTC.
Position N 28°16' W 092°06'.
Warning: this ship's position is 27 days out of date.

; draft 2.2 m.

MMSI: 367021170.

Date/timePositionNaut miles runAvg speedWind from/ knotsBaromVisibWave heightAir tempDewpointWater temp
2016-Apr-08 10:20N 28°16' W 092°06'1316.8
2016-Apr-08 09:33N 28°29' W 092°10'2120.9
2016-Apr-08 08:33N 28°50' W 092°15'2020.4
2016-Apr-08 07:33N 29°09' W 092°20'2019.8
2016-Apr-08 06:32N 29°30' W 092°19'9 8.8
2016-Apr-08 05:33N 29°38' W 092°16'9 9.4
2016-Apr-08 04:33N 29°46' W 092°11'1 0.8
2016-Apr-08 03:34N 29°47' W 092°11'0 0.0
2016-Apr-08 02:33N 29°47' W 092°11'2 0.2
2016-Apr-07 14:33N 29°47' W 092°09'9 3.0
2016-Apr-07 11:24N 29°40' W 092°15'8 0.2
2016-Apr-05 13:33N 29°47' W 092°11'10 9.6
2016-Apr-05 12:33N 29°38' W 092°16'7 7.4
2016-Apr-05 11:33N 29°31' W 092°19'2120.4
2016-Apr-05 10:32N 29°10' W 092°20'  

Dump ship's entire track history